Portada
Imágenes satélite Pronóstico 15 díasClimaPredicción Marítima Ciclones Rayo AeropuertosFAQ Noticias Acerca
El tiempo : Europa África América del Norte América del Sur Asia Australia-Oceanía Otros
Idiomas Contacto

Tarbes Lourdes, Francia

Ossun

latitud: 43-11N, longitud: 000-00W, altitud: 379 m


METAR: LFBT 312330Z AUTO 17005KT 9999 NSC 15/08 Q1021
TAF: LFBT 312300Z 0100/0124 18008KT CAVOK

Hora: 01:08 (00:08 UTC)

Observación

El informe se hizo hace 38 minutos, a las 23:30 UTC
Viento 5 kt del sur
Temperatura 15°C
Humedad 63%
Presión 1021 hPa
Visibilidad 10 km o más

Cambiar las unidades

Pronóstico

El informe se hizo hace 1 hora y 8 minutos, a las 23:00 UTC
Pronóstico válido del 01 a las 00 UTC al 01 a las 24 UTC
Viento 8 kt del sur
Visibilidad 10 km o más
sin nubes por debajo de 1500 m y sin presencia de cumulonimbus.
La información que se ofrece en estas páginas está sujeta a una cláusula de exención de responsabilidad
El tiempo : Europa África América del Norte América del Sur Asia Australia-Oceanía Otros
Imágenes satélite Pronóstico 15 díasClimaPredicción Marítima Ciclones Rayo AeropuertosFAQ Idiomas Contacto Noticias Acerca